Decatur Airport
KDEC : now visible

Airfield :











YOU CAN JOIN US ON...

 
LOGIN :

Register | Disclaimer

   EN    FR    IT 

 









Legend :    VFR   Marginal VFR   IFR   Intensive IFR   Very Intensive IFR
Visi :
Ceiling :
>= 8 km
>= 3000ft
5 to 8 km
1000 to 3000 ft
1500m to 5 km
500 to 1000 ft
800 to 1500m
200 to 500 ft
< 800m
< 200 ft
Symbols :   Thunderstorms  Fog  Heavy snow  Heavy precipitations  Wind > 20 kt






- Airport Elevation : 682 ft
- IATA code : DEC


KDEC - Decatur

CURRENT METAR :
  • 192054Z 01009KT 10SM OVC026 10/06 A3015 RMK AO2 SLP214 T01000061 55007

EXPIRED METARs :
  • 191954Z 03010KT 10SM OVC031 11/07 A3013 RMK AO2 SLP207 T01060067
  • 191854Z 05013KT 10SM OVC031 11/07 A3013 RMK AO2 SLP205 T01110067

TAF KDEC
Valid from the 19 at 20:00 until the 20 at 18:00 UTC


192000Z 1920/2018 04012KT P6SM OVC035
FM192100 04010KT P6SM OVC025
FM200200 04007KT P6SM OVC015
FM201500 08009KT P6SM BKN035
KZKC FIR / North America



MET'MAP, your aeronautical weather chart ! - Copyright ORBIFLY December 2007 - Disclaimer

ORBIFLY MET'MAP TEAM :

Programming & Development : Alexandra Zaïnal
Concept & original design : Baudouin d'Aumeries
Assistance for programming : Marc-Olivier Méhu
Technical & hardware support : Manuel Goepfert

Contact : metmap@orbifly.com




SOURCES & CREDITS :

   NOAA       Earth
Advisory